sensor_id;sensor_type;location;lat;lon;timestamp;temperature;humidity
9179;DHT22;4624;48.126;11.546;2022-09-12T00:01:04;13.30;99.90
9179;DHT22;4624;48.126;11.546;2022-09-12T00:03:32;13.30;99.90
9179;DHT22;4624;48.126;11.546;2022-09-12T00:05:59;13.30;99.90
9179;DHT22;4624;48.126;11.546;2022-09-12T00:08:27;13.30;99.90
9179;DHT22;4624;48.126;11.546;2022-09-12T00:10:54;13.30;99.90
9179;DHT22;4624;48.126;11.546;2022-09-12T00:13:20;13.30;99.90
9179;DHT22;4624;48.126;11.546;2022-09-12T00:15:47;13.20;99.90
9179;DHT22;4624;48.126;11.546;2022-09-12T00:18:15;13.20;99.90
9179;DHT22;4624;48.126;11.546;2022-09-12T00:20:42;13.20;99.90
9179;DHT22;4624;48.126;11.546;2022-09-12T00:23:09;13.20;99.90
9179;DHT22;4624;48.126;11.546;2022-09-12T00:25:41;13.20;99.90
9179;DHT22;4624;48.126;11.546;2022-09-12T00:28:08;13.10;99.90
9179;DHT22;4624;48.126;11.546;2022-09-12T00:30:39;13.20;99.90
9179;DHT22;4624;48.126;11.546;2022-09-12T00:33:06;13.10;99.90
9179;DHT22;4624;48.126;11.546;2022-09-12T00:35:33;13.20;99.90
9179;DHT22;4624;48.126;11.546;2022-09-12T00:37:59;13.10;99.90
9179;DHT22;4624;48.126;11.546;2022-09-12T00:40:26;13.10;99.90
9179;DHT22;4624;48.126;11.546;2022-09-12T00:42:54;13.10;99.90
9179;DHT22;4624;48.126;11.546;2022-09-12T00:45:25;13.00;99.90
9179;DHT22;4624;48.126;11.546;2022-09-12T00:47:53;13.00;99.90
9179;DHT22;4624;48.126;11.546;2022-09-12T00:50:20;12.90;99.90
9179;DHT22;4624;48.126;11.546;2022-09-12T00:52:50;12.80;99.90
9179;DHT22;4624;48.126;11.546;2022-09-12T00:55:21;12.90;99.90
9179;DHT22;4624;48.126;11.546;2022-09-12T00:57:50;12.90;99.90
9179;DHT22;4624;48.126;11.546;2022-09-12T01:00:22;12.90;99.90
9179;DHT22;4624;48.126;11.546;2022-09-12T01:02:52;12.90;99.90
9179;DHT22;4624;48.126;11.546;2022-09-12T01:05:21;12.80;99.90
9179;DHT22;4624;48.126;11.546;2022-09-12T01:07:49;12.80;99.90
9179;DHT22;4624;48.126;11.546;2022-09-12T01:10:17;12.80;99.90
9179;DHT22;4624;48.126;11.546;2022-09-12T01:12:45;12.80;99.90
9179;DHT22;4624;48.126;11.546;2022-09-12T01:15:12;12.80;99.90
9179;DHT22;4624;48.126;11.546;2022-09-12T01:17:50;12.80;99.90
9179;DHT22;4624;48.126;11.546;2022-09-12T01:29:43;12.80;99.90
9179;DHT22;4624;48.126;11.546;2022-09-12T01:32:20;12.70;99.90
9179;DHT22;4624;48.126;11.546;2022-09-12T01:34:54;12.70;99.90
9179;DHT22;4624;48.126;11.546;2022-09-12T01:37:28;12.60;99.90
9179;DHT22;4624;48.126;11.546;2022-09-12T01:40:00;12.60;99.90
9179;DHT22;4624;48.126;11.546;2022-09-12T01:42:31;12.60;99.90
9179;DHT22;4624;48.126;11.546;2022-09-12T01:45:04;12.60;99.90
9179;DHT22;4624;48.126;11.546;2022-09-12T01:47:39;12.60;99.90
9179;DHT22;4624;48.126;11.546;2022-09-12T01:50:09;12.60;99.90
9179;DHT22;4624;48.126;11.546;2022-09-12T01:52:38;12.50;99.90
9179;DHT22;4624;48.126;11.546;2022-09-12T01:55:11;12.50;99.90
9179;DHT22;4624;48.126;11.546;2022-09-12T01:57:43;12.50;99.90
9179;DHT22;4624;48.126;11.546;2022-09-12T02:00:12;12.50;99.90
9179;DHT22;4624;48.126;11.546;2022-09-12T02:02:44;12.50;99.90
9179;DHT22;4624;48.126;11.546;2022-09-12T02:05:16;12.50;99.90
9179;DHT22;4624;48.126;11.546;2022-09-12T02:07:46;12.40;99.90
9179;DHT22;4624;48.126;11.546;2022-09-12T02:10:16;12.40;99.90
9179;DHT22;4624;48.126;11.546;2022-09-12T02:12:46;12.40;99.90
9179;DHT22;4624;48.126;11.546;2022-09-12T02:15:17;12.30;99.90
9179;DHT22;4624;48.126;11.546;2022-09-12T02:17:49;12.30;99.90
9179;DHT22;4624;48.126;11.546;2022-09-12T02:20:19;12.30;99.90
9179;DHT22;4624;48.126;11.546;2022-09-12T02:22:49;12.30;99.90
9179;DHT22;4624;48.126;11.546;2022-09-12T02:25:18;12.40;99.90
9179;DHT22;4624;48.126;11.546;2022-09-12T02:27:48;12.30;99.90
9179;DHT22;4624;48.126;11.546;2022-09-12T02:30:16;12.30;99.90
9179;DHT22;4624;48.126;11.546;2022-09-12T02:32:53;12.30;99.90
9179;DHT22;4624;48.126;11.546;2022-09-12T02:35:30;12.30;99.90
9179;DHT22;4624;48.126;11.546;2022-09-12T02:38:01;12.30;99.90
9179;DHT22;4624;48.126;11.546;2022-09-12T02:40:30;12.30;99.90
9179;DHT22;4624;48.126;11.546;2022-09-12T02:42:57;12.30;99.90
9179;DHT22;4624;48.126;11.546;2022-09-12T02:45:24;12.30;99.90
9179;DHT22;4624;48.126;11.546;2022-09-12T02:47:56;12.30;99.90
9179;DHT22;4624;48.126;11.546;2022-09-12T02:50:24;12.30;99.90
9179;DHT22;4624;48.126;11.546;2022-09-12T02:52:52;12.30;99.90
9179;DHT22;4624;48.126;11.546;2022-09-12T02:55:20;12.20;99.90
9179;DHT22;4624;48.126;11.546;2022-09-12T02:57:50;12.20;99.90
9179;DHT22;4624;48.126;11.546;2022-09-12T03:00:17;12.20;99.90
9179;DHT22;4624;48.126;11.546;2022-09-12T03:05:52;12.20;99.90
9179;DHT22;4624;48.126;11.546;2022-09-12T03:08:35;12.10;99.90
9179;DHT22;4624;48.126;11.546;2022-09-12T03:11:24;12.10;99.90
9179;DHT22;4624;48.126;11.546;2022-09-12T03:13:59;12.10;99.90
9179;DHT22;4624;48.126;11.546;2022-09-12T03:16:34;12.10;99.90
9179;DHT22;4624;48.126;11.546;2022-09-12T03:19:09;12.00;99.90
9179;DHT22;4624;48.126;11.546;2022-09-12T03:21:49;12.00;99.90
9179;DHT22;4624;48.126;11.546;2022-09-12T03:24:22;12.00;99.90
9179;DHT22;4624;48.126;11.546;2022-09-12T03:26:54;11.90;99.90
9179;DHT22;4624;48.126;11.546;2022-09-12T03:29:23;11.90;99.90
9179;DHT22;4624;48.126;11.546;2022-09-12T03:31:52;11.80;99.90
9179;DHT22;4624;48.126;11.546;2022-09-12T03:34:20;11.80;99.90
9179;DHT22;4624;48.126;11.546;2022-09-12T03:36:48;11.80;99.90
9179;DHT22;4624;48.126;11.546;2022-09-12T03:39:16;11.90;99.90
9179;DHT22;4624;48.126;11.546;2022-09-12T03:41:43;11.90;99.90
9179;DHT22;4624;48.126;11.546;2022-09-12T03:44:09;11.80;99.90
9179;DHT22;4624;48.126;11.546;2022-09-12T03:46:36;11.80;99.90
9179;DHT22;4624;48.126;11.546;2022-09-12T03:49:03;11.80;99.90
9179;DHT22;4624;48.126;11.546;2022-09-12T03:51:30;11.80;99.90
9179;DHT22;4624;48.126;11.546;2022-09-12T03:53:58;11.80;99.90
9179;DHT22;4624;48.126;11.546;2022-09-12T03:56:25;11.80;99.90
9179;DHT22;4624;48.126;11.546;2022-09-12T03:58:52;11.80;99.90
9179;DHT22;4624;48.126;11.546;2022-09-12T04:01:19;11.70;99.90
9179;DHT22;4624;48.126;11.546;2022-09-12T04:03:47;11.70;99.90
9179;DHT22;4624;48.126;11.546;2022-09-12T04:06:16;11.70;99.90
9179;DHT22;4624;48.126;11.546;2022-09-12T04:08:43;11.70;99.90
9179;DHT22;4624;48.126;11.546;2022-09-12T04:11:13;11.70;99.90
9179;DHT22;4624;48.126;11.546;2022-09-12T04:13:42;11.70;99.90
9179;DHT22;4624;48.126;11.546;2022-09-12T04:16:10;11.60;99.90
9179;DHT22;4624;48.126;11.546;2022-09-12T04:18:37;11.60;99.90
9179;DHT22;4624;48.126;11.546;2022-09-12T04:21:04;11.60;99.90
9179;DHT22;4624;48.126;11.546;2022-09-12T04:23:32;11.60;99.90
9179;DHT22;4624;48.126;11.546;2022-09-12T04:26:01;11.60;99.90
9179;DHT22;4624;48.126;11.546;2022-09-12T04:28:29;11.60;99.90
9179;DHT22;4624;48.126;11.546;2022-09-12T04:31:00;11.60;99.90
9179;DHT22;4624;48.126;11.546;2022-09-12T04:33:27;11.60;99.90
9179;DHT22;4624;48.126;11.546;2022-09-12T04:35:54;11.60;99.90
9179;DHT22;4624;48.126;11.546;2022-09-12T04:38:21;11.60;99.90
9179;DHT22;4624;48.126;11.546;2022-09-12T04:40:47;11.60;99.90
9179;DHT22;4624;48.126;11.546;2022-09-12T04:43:14;11.60;99.90
9179;DHT22;4624;48.126;11.546;2022-09-12T04:45:42;11.60;99.90
9179;DHT22;4624;48.126;11.546;2022-09-12T04:48:09;11.60;99.90
9179;DHT22;4624;48.126;11.546;2022-09-12T04:50:36;11.60;99.90
9179;DHT22;4624;48.126;11.546;2022-09-12T04:53:02;11.60;99.90
9179;DHT22;4624;48.126;11.546;2022-09-12T04:55:29;11.60;99.90
9179;DHT22;4624;48.126;11.546;2022-09-12T04:57:56;11.60;99.90
9179;DHT22;4624;48.126;11.546;2022-09-12T05:00:23;11.60;99.90
9179;DHT22;4624;48.126;11.546;2022-09-12T05:02:51;11.60;99.90
9179;DHT22;4624;48.126;11.546;2022-09-12T05:05:17;11.60;99.90
9179;DHT22;4624;48.126;11.546;2022-09-12T05:07:44;11.60;99.90
9179;DHT22;4624;48.126;11.546;2022-09-12T05:10:11;11.50;99.90
9179;DHT22;4624;48.126;11.546;2022-09-12T05:12:37;11.50;99.90
9179;DHT22;4624;48.126;11.546;2022-09-12T05:15:05;11.50;99.90
9179;DHT22;4624;48.126;11.546;2022-09-12T05:17:32;11.50;99.90
9179;DHT22;4624;48.126;11.546;2022-09-12T05:20:01;11.50;99.90
9179;DHT22;4624;48.126;11.546;2022-09-12T05:22:31;11.50;99.90
9179;DHT22;4624;48.126;11.546;2022-09-12T05:24:58;11.50;99.90
9179;DHT22;4624;48.126;11.546;2022-09-12T05:27:24;11.50;99.90
9179;DHT22;4624;48.126;11.546;2022-09-12T05:29:51;11.50;99.90
9179;DHT22;4624;48.126;11.546;2022-09-12T05:32:18;11.50;99.90
9179;DHT22;4624;48.126;11.546;2022-09-12T05:34:45;11.50;99.90
9179;DHT22;4624;48.126;11.546;2022-09-12T05:37:13;11.50;99.90
9179;DHT22;4624;48.126;11.546;2022-09-12T05:39:39;11.60;99.90
9179;DHT22;4624;48.126;11.546;2022-09-12T05:42:06;11.60;99.90
9179;DHT22;4624;48.126;11.546;2022-09-12T05:44:33;11.70;99.90
9179;DHT22;4624;48.126;11.546;2022-09-12T05:47:00;11.70;99.90
9179;DHT22;4624;48.126;11.546;2022-09-12T05:49:27;11.70;99.90
9179;DHT22;4624;48.126;11.546;2022-09-12T05:51:54;11.80;99.90
9179;DHT22;4624;48.126;11.546;2022-09-12T05:54:22;11.80;99.90
9179;DHT22;4624;48.126;11.546;2022-09-12T05:56:49;11.90;99.90
9179;DHT22;4624;48.126;11.546;2022-09-12T05:59:18;11.90;99.90
9179;DHT22;4624;48.126;11.546;2022-09-12T06:01:45;12.00;99.90
9179;DHT22;4624;48.126;11.546;2022-09-12T06:04:12;12.00;99.90
9179;DHT22;4624;48.126;11.546;2022-09-12T06:06:41;12.10;99.90
9179;DHT22;4624;48.126;11.546;2022-09-12T06:09:10;12.20;99.90
9179;DHT22;4624;48.126;11.546;2022-09-12T06:11:38;12.30;99.90
9179;DHT22;4624;48.126;11.546;2022-09-12T06:14:07;12.40;99.90
9179;DHT22;4624;48.126;11.546;2022-09-12T06:16:35;12.60;99.90
9179;DHT22;4624;48.126;11.546;2022-09-12T06:19:03;12.80;99.90
9179;DHT22;4624;48.126;11.546;2022-09-12T06:21:31;13.10;99.90
9179;DHT22;4624;48.126;11.546;2022-09-12T06:23:59;13.30;99.90
9179;DHT22;4624;48.126;11.546;2022-09-12T06:26:26;13.50;99.90
9179;DHT22;4624;48.126;11.546;2022-09-12T06:28:56;13.80;99.90
9179;DHT22;4624;48.126;11.546;2022-09-12T06:31:24;14.00;99.90
9179;DHT22;4624;48.126;11.546;2022-09-12T06:33:53;14.30;99.90
9179;DHT22;4624;48.126;11.546;2022-09-12T06:36:22;14.60;99.90
9179;DHT22;4624;48.126;11.546;2022-09-12T06:38:53;14.90;99.90
9179;DHT22;4624;48.126;11.546;2022-09-12T06:41:20;15.20;99.90
9179;DHT22;4624;48.126;11.546;2022-09-12T06:43:47;15.50;99.90
9179;DHT22;4624;48.126;11.546;2022-09-12T06:46:16;15.80;99.90
9179;DHT22;4624;48.126;11.546;2022-09-12T06:48:43;16.10;99.90
9179;DHT22;4624;48.126;11.546;2022-09-12T06:51:11;16.30;99.90
9179;DHT22;4624;48.126;11.546;2022-09-12T06:53:39;16.60;99.90
9179;DHT22;4624;48.126;11.546;2022-09-12T06:56:09;16.90;99.90
9179;DHT22;4624;48.126;11.546;2022-09-12T06:58:36;17.20;99.90
9179;DHT22;4624;48.126;11.546;2022-09-12T07:01:05;17.30;99.90
9179;DHT22;4624;48.126;11.546;2022-09-12T07:03:34;17.60;99.90
9179;DHT22;4624;48.126;11.546;2022-09-12T07:06:02;17.80;99.90
9179;DHT22;4624;48.126;11.546;2022-09-12T07:08:29;18.00;99.90
9179;DHT22;4624;48.126;11.546;2022-09-12T07:10:56;18.30;99.90
9179;DHT22;4624;48.126;11.546;2022-09-12T07:13:24;18.50;99.70
9179;DHT22;4624;48.126;11.546;2022-09-12T07:15:51;18.80;99.10
9179;DHT22;4624;48.126;11.546;2022-09-12T07:18:17;19.00;98.70
9179;DHT22;4624;48.126;11.546;2022-09-12T07:20:46;19.30;98.20
9179;DHT22;4624;48.126;11.546;2022-09-12T07:23:13;19.60;97.70
9179;DHT22;4624;48.126;11.546;2022-09-12T07:25:40;19.90;97.20
9179;DHT22;4624;48.126;11.546;2022-09-12T07:28:06;20.20;96.90
9179;DHT22;4624;48.126;11.546;2022-09-12T07:30:35;20.50;96.30
9179;DHT22;4624;48.126;11.546;2022-09-12T07:33:02;20.70;95.60
9179;DHT22;4624;48.126;11.546;2022-09-12T07:35:31;21.00;95.20
9179;DHT22;4624;48.126;11.546;2022-09-12T07:38:00;21.40;94.70
9179;DHT22;4624;48.126;11.546;2022-09-12T07:40:27;21.70;93.30
9179;DHT22;4624;48.126;11.546;2022-09-12T07:42:54;22.00;92.40
9179;DHT22;4624;48.126;11.546;2022-09-12T07:45:21;22.20;91.60
9179;DHT22;4624;48.126;11.546;2022-09-12T07:47:47;22.50;91.00
9179;DHT22;4624;48.126;11.546;2022-09-12T07:50:15;22.80;89.50
9179;DHT22;4624;48.126;11.546;2022-09-12T07:52:41;23.20;89.50
9179;DHT22;4624;48.126;11.546;2022-09-12T07:55:10;23.60;86.80
9179;DHT22;4624;48.126;11.546;2022-09-12T07:57:36;24.30;84.30
9179;DHT22;4624;48.126;11.546;2022-09-12T08:00:04;25.30;80.90
9179;DHT22;4624;48.126;11.546;2022-09-12T08:02:32;26.10;77.70
9179;DHT22;4624;48.126;11.546;2022-09-12T08:04:59;26.90;73.60
9179;DHT22;4624;48.126;11.546;2022-09-12T08:07:25;27.30;71.10
9179;DHT22;4624;48.126;11.546;2022-09-12T08:09:52;27.60;68.10
9179;DHT22;4624;48.126;11.546;2022-09-12T08:12:20;27.50;64.20
9179;DHT22;4624;48.126;11.546;2022-09-12T08:14:47;27.40;64.70
9179;DHT22;4624;48.126;11.546;2022-09-12T08:17:14;27.50;63.60
9179;DHT22;4624;48.126;11.546;2022-09-12T08:19:40;27.40;62.40
9179;DHT22;4624;48.126;11.546;2022-09-12T08:22:08;27.40;62.70
9179;DHT22;4624;48.126;11.546;2022-09-12T08:24:35;27.50;61.60
9179;DHT22;4624;48.126;11.546;2022-09-12T08:27:01;27.50;61.30
9179;DHT22;4624;48.126;11.546;2022-09-12T08:29:29;27.50;59.70
9179;DHT22;4624;48.126;11.546;2022-09-12T08:31:56;27.40;60.30
9179;DHT22;4624;48.126;11.546;2022-09-12T08:34:23;27.50;59.50
9179;DHT22;4624;48.126;11.546;2022-09-12T08:36:50;27.30;58.80
9179;DHT22;4624;48.126;11.546;2022-09-12T08:39:19;27.30;58.50
9179;DHT22;4624;48.126;11.546;2022-09-12T08:41:47;27.20;59.30
9179;DHT22;4624;48.126;11.546;2022-09-12T08:44:42;27.40;59.40
9179;DHT22;4624;48.126;11.546;2022-09-12T08:47:24;27.50;58.20
9179;DHT22;4624;48.126;11.546;2022-09-12T08:49:57;27.60;57.50
9179;DHT22;4624;48.126;11.546;2022-09-12T08:52:29;27.70;57.40
9179;DHT22;4624;48.126;11.546;2022-09-12T08:54:56;27.80;56.80
9179;DHT22;4624;48.126;11.546;2022-09-12T08:57:23;28.00;56.70
9179;DHT22;4624;48.126;11.546;2022-09-12T08:59:51;28.10;56.30
9179;DHT22;4624;48.126;11.546;2022-09-12T09:02:40;28.40;56.60
9179;DHT22;4624;48.126;11.546;2022-09-12T09:05:16;28.50;55.00
9179;DHT22;4624;48.126;11.546;2022-09-12T09:08:09;28.70;53.90
9179;DHT22;4624;48.126;11.546;2022-09-12T09:10:46;28.70;54.70
9179;DHT22;4624;48.126;11.546;2022-09-12T09:13:26;28.90;53.30
9179;DHT22;4624;48.126;11.546;2022-09-12T09:16:18;28.90;53.70
9179;DHT22;4624;48.126;11.546;2022-09-12T09:18:48;29.20;52.60
9179;DHT22;4624;48.126;11.546;2022-09-12T09:21:22;29.10;53.00
9179;DHT22;4624;48.126;11.546;2022-09-12T09:23:55;29.30;51.50
9179;DHT22;4624;48.126;11.546;2022-09-12T09:26:28;29.50;51.70
9179;DHT22;4624;48.126;11.546;2022-09-12T09:28:59;29.90;50.90
9179;DHT22;4624;48.126;11.546;2022-09-12T09:31:33;30.30;51.10
9179;DHT22;4624;48.126;11.546;2022-09-12T09:34:04;30.80;50.20
9179;DHT22;4624;48.126;11.546;2022-09-12T09:36:39;31.10;49.20
9179;DHT22;4624;48.126;11.546;2022-09-12T09:39:15;31.50;49.70
9179;DHT22;4624;48.126;11.546;2022-09-12T09:41:53;31.70;47.10
9179;DHT22;4624;48.126;11.546;2022-09-12T09:44:27;32.00;46.60
9179;DHT22;4624;48.126;11.546;2022-09-12T09:46:57;32.30;46.10
9179;DHT22;4624;48.126;11.546;2022-09-12T09:49:26;32.50;45.90
9179;DHT22;4624;48.126;11.546;2022-09-12T09:51:53;32.80;44.80
9179;DHT22;4624;48.126;11.546;2022-09-12T09:54:23;33.00;44.20
9179;DHT22;4624;48.126;11.546;2022-09-12T09:56:51;32.80;43.60
9179;DHT22;4624;48.126;11.546;2022-09-12T09:59:19;32.80;43.50
9179;DHT22;4624;48.126;11.546;2022-09-12T10:01:52;33.00;43.70
9179;DHT22;4624;48.126;11.546;2022-09-12T10:04:23;33.30;43.20
9179;DHT22;4624;48.126;11.546;2022-09-12T10:06:51;33.60;42.80
9179;DHT22;4624;48.126;11.546;2022-09-12T10:09:21;33.80;42.10
9179;DHT22;4624;48.126;11.546;2022-09-12T10:11:50;34.10;41.80
9179;DHT22;4624;48.126;11.546;2022-09-12T10:14:29;34.50;40.50
9179;DHT22;4624;48.126;11.546;2022-09-12T10:16:56;34.40;40.30
9179;DHT22;4624;48.126;11.546;2022-09-12T10:19:34;34.70;40.60
9179;DHT22;4624;48.126;11.546;2022-09-12T10:22:01;35.30;40.90
9179;DHT22;4624;48.126;11.546;2022-09-12T10:24:33;35.70;40.50
9179;DHT22;4624;48.126;11.546;2022-09-12T10:27:08;36.00;38.90
9179;DHT22;4624;48.126;11.546;2022-09-12T10:29:42;36.00;38.70
9179;DHT22;4624;48.126;11.546;2022-09-12T10:32:11;36.20;38.30
9179;DHT22;4624;48.126;11.546;2022-09-12T10:34:43;36.30;37.00
9179;DHT22;4624;48.126;11.546;2022-09-12T10:37:18;36.40;37.10
9179;DHT22;4624;48.126;11.546;2022-09-12T10:39:50;36.80;36.50
9179;DHT22;4624;48.126;11.546;2022-09-12T10:42:47;37.00;35.80
9179;DHT22;4624;48.126;11.546;2022-09-12T10:45:27;37.10;35.30
9179;DHT22;4624;48.126;11.546;2022-09-12T10:47:56;37.30;35.50
9179;DHT22;4624;48.126;11.546;2022-09-12T10:50:31;37.40;35.50
9179;DHT22;4624;48.126;11.546;2022-09-12T10:53:14;37.60;35.20
9179;DHT22;4624;48.126;11.546;2022-09-12T10:56:04;38.00;35.70
9179;DHT22;4624;48.126;11.546;2022-09-12T10:58:43;38.60;35.00
9179;DHT22;4624;48.126;11.546;2022-09-12T11:01:22;38.50;33.80
9179;DHT22;4624;48.126;11.546;2022-09-12T11:04:17;38.00;34.10
9179;DHT22;4624;48.126;11.546;2022-09-12T11:07:04;38.40;34.10
9179;DHT22;4624;48.126;11.546;2022-09-12T11:09:38;38.10;34.00
9179;DHT22;4624;48.126;11.546;2022-09-12T11:12:12;37.90;34.30
9179;DHT22;4624;48.126;11.546;2022-09-12T11:14:55;38.10;34.50
9179;DHT22;4624;48.126;11.546;2022-09-12T11:17:36;38.70;34.50
9179;DHT22;4624;48.126;11.546;2022-09-12T11:20:26;39.00;33.70
9179;DHT22;4624;48.126;11.546;2022-09-12T11:23:24;39.50;33.60
9179;DHT22;4624;48.126;11.546;2022-09-12T11:26:00;39.30;32.50
9179;DHT22;4624;48.126;11.546;2022-09-12T11:28:39;39.10;31.70
9179;DHT22;4624;48.126;11.546;2022-09-12T11:31:32;38.90;31.60
9179;DHT22;4624;48.126;11.546;2022-09-12T11:34:07;38.50;31.70
9179;DHT22;4624;48.126;11.546;2022-09-12T11:36:38;38.30;32.20
9179;DHT22;4624;48.126;11.546;2022-09-12T11:39:16;38.60;32.00
9179;DHT22;4624;48.126;11.546;2022-09-12T11:41:49;39.00;33.10
9179;DHT22;4624;48.126;11.546;2022-09-12T11:44:19;39.20;32.10
9179;DHT22;4624;48.126;11.546;2022-09-12T11:46:47;39.10;31.50
9179;DHT22;4624;48.126;11.546;2022-09-12T11:49:28;38.70;32.30
9179;DHT22;4624;48.126;11.546;2022-09-12T11:51:59;38.40;33.60
9179;DHT22;4624;48.126;11.546;2022-09-12T11:54:32;38.50;33.50
9179;DHT22;4624;48.126;11.546;2022-09-12T11:57:07;38.90;33.50
9179;DHT22;4624;48.126;11.546;2022-09-12T11:59:42;39.20;33.50
9179;DHT22;4624;48.126;11.546;2022-09-12T12:02:18;39.50;32.60
9179;DHT22;4624;48.126;11.546;2022-09-12T12:04:58;39.30;32.40
9179;DHT22;4624;48.126;11.546;2022-09-12T12:07:28;39.50;32.70
9179;DHT22;4624;48.126;11.546;2022-09-12T12:09:58;39.80;31.90
9179;DHT22;4624;48.126;11.546;2022-09-12T12:12:26;39.60;31.90
9179;DHT22;4624;48.126;11.546;2022-09-12T12:14:55;39.40;31.90
9179;DHT22;4624;48.126;11.546;2022-09-12T12:17:24;39.20;31.90
9179;DHT22;4624;48.126;11.546;2022-09-12T12:19:58;37.90;32.20
9179;DHT22;4624;48.126;11.546;2022-09-12T12:22:25;36.50;33.90
9179;DHT22;4624;48.126;11.546;2022-09-12T12:25:24;34.50;36.00
9179;DHT22;4624;48.126;11.546;2022-09-12T12:27:53;32.30;38.10
9179;DHT22;4624;48.126;11.546;2022-09-12T12:34:03;29.30;42.80
9179;DHT22;4624;48.126;11.546;2022-09-12T12:36:40;28.20;44.20
9179;DHT22;4624;48.126;11.546;2022-09-12T12:48:57;25.80;48.10
9179;DHT22;4624;48.126;11.546;2022-09-12T12:54:28;25.10;50.20
9179;DHT22;4624;48.126;11.546;2022-09-12T12:57:05;24.80;50.50
9179;DHT22;4624;48.126;11.546;2022-09-12T12:59:46;24.60;51.70
9179;DHT22;4624;48.126;11.546;2022-09-12T13:02:19;24.50;51.20
9179;DHT22;4624;48.126;11.546;2022-09-12T13:04:47;24.40;51.80
9179;DHT22;4624;48.126;11.546;2022-09-12T13:07:24;24.20;51.90
9179;DHT22;4624;48.126;11.546;2022-09-12T13:09:52;24.00;52.60
9179;DHT22;4624;48.126;11.546;2022-09-12T13:12:21;23.90;52.50
9179;DHT22;4624;48.126;11.546;2022-09-12T13:14:52;23.70;52.50
9179;DHT22;4624;48.126;11.546;2022-09-12T13:17:25;23.60;52.40
9179;DHT22;4624;48.126;11.546;2022-09-12T13:20:00;23.60;52.50
9179;DHT22;4624;48.126;11.546;2022-09-12T13:22:38;23.50;53.30
9179;DHT22;4624;48.126;11.546;2022-09-12T13:25:18;23.40;52.60
9179;DHT22;4624;48.126;11.546;2022-09-12T13:28:05;23.30;53.00
9179;DHT22;4624;48.126;11.546;2022-09-12T13:30:34;23.30;54.60
9179;DHT22;4624;48.126;11.546;2022-09-12T13:33:12;23.30;54.80
9179;DHT22;4624;48.126;11.546;2022-09-12T13:35:53;23.30;55.00
9179;DHT22;4624;48.126;11.546;2022-09-12T13:38:32;23.40;55.90
9179;DHT22;4624;48.126;11.546;2022-09-12T13:41:15;23.40;55.80
9179;DHT22;4624;48.126;11.546;2022-09-12T13:43:45;23.40;55.60
9179;DHT22;4624;48.126;11.546;2022-09-12T13:46:16;23.40;56.30
9179;DHT22;4624;48.126;11.546;2022-09-12T13:48:46;23.40;56.40
9179;DHT22;4624;48.126;11.546;2022-09-12T13:51:21;23.40;56.30
9179;DHT22;4624;48.126;11.546;2022-09-12T13:53:49;23.30;56.60
9179;DHT22;4624;48.126;11.546;2022-09-12T13:56:19;23.30;56.60
9179;DHT22;4624;48.126;11.546;2022-09-12T13:58:53;23.20;55.90
9179;DHT22;4624;48.126;11.546;2022-09-12T14:01:22;23.10;56.50
9179;DHT22;4624;48.126;11.546;2022-09-12T14:03:52;23.10;56.20
9179;DHT22;4624;48.126;11.546;2022-09-12T14:06:44;23.10;56.10
9179;DHT22;4624;48.126;11.546;2022-09-12T14:09:16;22.90;55.40
9179;DHT22;4624;48.126;11.546;2022-09-12T14:11:46;22.90;55.40
9179;DHT22;4624;48.126;11.546;2022-09-12T14:14:19;22.90;56.80
9179;DHT22;4624;48.126;11.546;2022-09-12T14:16:52;22.80;56.80
9179;DHT22;4624;48.126;11.546;2022-09-12T14:19:22;22.70;56.20
9179;DHT22;4624;48.126;11.546;2022-09-12T14:21:51;22.70;56.80
9179;DHT22;4624;48.126;11.546;2022-09-12T14:24:19;22.70;56.90
9179;DHT22;4624;48.126;11.546;2022-09-12T14:26:49;22.70;57.70
9179;DHT22;4624;48.126;11.546;2022-09-12T14:29:16;22.60;58.20
9179;DHT22;4624;48.126;11.546;2022-09-12T14:31:43;22.60;58.50
9179;DHT22;4624;48.126;11.546;2022-09-12T14:34:12;22.60;57.80
9179;DHT22;4624;48.126;11.546;2022-09-12T14:36:43;22.50;57.50
9179;DHT22;4624;48.126;11.546;2022-09-12T14:39:21;22.50;57.30
9179;DHT22;4624;48.126;11.546;2022-09-12T14:41:50;22.40;57.00
9179;DHT22;4624;48.126;11.546;2022-09-12T14:44:27;22.40;57.70
9179;DHT22;4624;48.126;11.546;2022-09-12T14:46:56;22.30;57.60
9179;DHT22;4624;48.126;11.546;2022-09-12T14:49:26;22.30;57.80
9179;DHT22;4624;48.126;11.546;2022-09-12T14:51:59;22.30;58.30
9179;DHT22;4624;48.126;11.546;2022-09-12T14:54:37;22.30;59.00
9179;DHT22;4624;48.126;11.546;2022-09-12T14:57:34;22.20;59.50
9179;DHT22;4624;48.126;11.546;2022-09-12T15:00:18;22.20;59.80
9179;DHT22;4624;48.126;11.546;2022-09-12T15:02:46;22.10;59.80
9179;DHT22;4624;48.126;11.546;2022-09-12T15:05:16;22.10;60.20
9179;DHT22;4624;48.126;11.546;2022-09-12T15:07:54;22.00;60.70
9179;DHT22;4624;48.126;11.546;2022-09-12T15:10:25;22.00;59.70
9179;DHT22;4624;48.126;11.546;2022-09-12T15:13:17;22.00;60.00
9179;DHT22;4624;48.126;11.546;2022-09-12T15:15:47;22.00;60.60
9179;DHT22;4624;48.126;11.546;2022-09-12T15:18:14;22.00;61.00
9179;DHT22;4624;48.126;11.546;2022-09-12T15:20:42;22.00;61.20
9179;DHT22;4624;48.126;11.546;2022-09-12T15:23:21;22.00;60.20
9179;DHT22;4624;48.126;11.546;2022-09-12T15:25:51;22.10;60.90
9179;DHT22;4624;48.126;11.546;2022-09-12T15:28:20;22.10;60.50
9179;DHT22;4624;48.126;11.546;2022-09-12T15:30:48;22.10;60.40
9179;DHT22;4624;48.126;11.546;2022-09-12T15:33:16;22.20;60.80
9179;DHT22;4624;48.126;11.546;2022-09-12T15:35:44;22.30;61.40
9179;DHT22;4624;48.126;11.546;2022-09-12T15:38:11;22.20;61.10
9179;DHT22;4624;48.126;11.546;2022-09-12T15:40:39;22.20;61.10
9179;DHT22;4624;48.126;11.546;2022-09-12T15:43:06;22.10;60.80
9179;DHT22;4624;48.126;11.546;2022-09-12T15:45:33;22.10;60.80
9179;DHT22;4624;48.126;11.546;2022-09-12T15:48:00;22.10;60.80
9179;DHT22;4624;48.126;11.546;2022-09-12T15:50:28;22.10;61.10
9179;DHT22;4624;48.126;11.546;2022-09-12T15:52:56;22.00;61.80
9179;DHT22;4624;48.126;11.546;2022-09-12T15:55:26;22.00;62.50
9179;DHT22;4624;48.126;11.546;2022-09-12T15:57:54;22.00;63.20
9179;DHT22;4624;48.126;11.546;2022-09-12T16:00:21;21.90;62.00
9179;DHT22;4624;48.126;11.546;2022-09-12T16:02:49;21.90;62.20
9179;DHT22;4624;48.126;11.546;2022-09-12T16:05:22;21.90;61.90
9179;DHT22;4624;48.126;11.546;2022-09-12T16:07:51;21.80;61.80
9179;DHT22;4624;48.126;11.546;2022-09-12T16:10:21;21.80;61.90
9179;DHT22;4624;48.126;11.546;2022-09-12T16:12:48;21.80;62.10
9179;DHT22;4624;48.126;11.546;2022-09-12T16:15:19;21.80;62.10
9179;DHT22;4624;48.126;11.546;2022-09-12T16:17:46;21.80;62.10
9179;DHT22;4624;48.126;11.546;2022-09-12T16:20:13;21.70;62.40
9179;DHT22;4624;48.126;11.546;2022-09-12T16:22:40;21.70;63.50
9179;DHT22;4624;48.126;11.546;2022-09-12T16:25:08;21.70;63.70
9179;DHT22;4624;48.126;11.546;2022-09-12T16:27:35;21.60;63.20
9179;DHT22;4624;48.126;11.546;2022-09-12T16:30:03;21.60;63.80
9179;DHT22;4624;48.126;11.546;2022-09-12T16:32:31;21.50;64.60
9179;DHT22;4624;48.126;11.546;2022-09-12T16:34:58;21.40;64.80
9179;DHT22;4624;48.126;11.546;2022-09-12T16:37:25;21.40;65.80